Terminal Aerodrome Forecast
Issued by NWS

Home | Current Version | Previous Version | Text Only | Print | Product List | Glossary On
Versions: 1 2 3 4 5 6 7 8 9 10 11 12
407
FTUS46 KSTO 250537
TAFSCK
TAF
KSCK 250537Z 2506/2606 25006KT P6SM BKN060
     FM251000 VRB04KT P6SM BKN020 BKN100
     FM252100 30005KT P6SM SCT030 BKN100=

USA.gov is the U.S. government's official web portal to all federal, state and local government web resources and services.